createdAt,value
2023-02-19T00:01:40.210Z,100.00
2023-02-19T00:04:14.733Z,100.00
2023-02-19T00:06:42.008Z,100.00
2023-02-19T00:09:09.745Z,100.00
2023-02-19T00:11:37.081Z,100.00
2023-02-19T00:14:04.462Z,100.00
2023-02-19T00:16:34.280Z,100.00
2023-02-19T00:19:02.644Z,100.00
2023-02-19T00:21:30.035Z,100.00
2023-02-19T00:23:59.557Z,100.00
2023-02-19T00:26:27.050Z,100.00
2023-02-19T00:28:55.317Z,100.00
2023-02-19T00:31:22.226Z,100.00
2023-02-19T00:33:51.014Z,100.00
2023-02-19T00:36:18.050Z,100.00
2023-02-19T00:38:45.301Z,100.00
2023-02-19T00:41:21.457Z,100.00
2023-02-19T00:43:54.399Z,100.00
2023-02-19T00:46:30.325Z,100.00
2023-02-19T00:48:58.009Z,100.00
2023-02-19T00:51:27.524Z,100.00
2023-02-19T00:53:54.497Z,100.00
2023-02-19T00:56:21.389Z,100.00
2023-02-19T00:58:49.086Z,100.00
2023-02-19T01:01:16.389Z,100.00
2023-02-19T01:03:44.928Z,100.00
2023-02-19T01:06:14.485Z,100.00
2023-02-19T01:08:41.419Z,100.00
2023-02-19T01:11:10.220Z,100.00
2023-02-19T01:13:37.863Z,100.00
2023-02-19T01:16:04.679Z,100.00
2023-02-19T01:18:32.077Z,100.00
2023-02-19T01:20:59.199Z,100.00
2023-02-19T01:23:26.335Z,100.00
2023-02-19T01:25:53.281Z,100.00
2023-02-19T01:28:20.060Z,100.00
2023-02-19T01:30:46.825Z,100.00
2023-02-19T01:33:13.708Z,100.00
2023-02-19T01:35:40.655Z,100.00
2023-02-19T01:38:08.365Z,100.00
2023-02-19T01:40:35.694Z,100.00
2023-02-19T01:43:03.702Z,100.00
2023-02-19T01:45:35.541Z,100.00
2023-02-19T01:48:17.525Z,100.00
2023-02-19T01:51:12.877Z,100.00
2023-02-19T01:53:45.048Z,100.00
2023-02-19T01:56:14.153Z,100.00
2023-02-19T01:58:41.235Z,100.00
2023-02-19T02:01:08.951Z,100.00
2023-02-19T02:03:38.274Z,100.00
2023-02-19T02:06:17.360Z,100.00
2023-02-19T02:09:02.493Z,100.00
2023-02-19T02:11:29.555Z,100.00
2023-02-19T02:13:57.495Z,100.00
2023-02-19T02:16:59.584Z,100.00
2023-02-19T02:19:54.258Z,100.00
2023-02-19T02:22:35.497Z,100.00
2023-02-19T02:25:11.211Z,100.00
2023-02-19T02:28:04.180Z,100.00
2023-02-19T02:30:48.971Z,100.00
2023-02-19T02:33:32.809Z,100.00
2023-02-19T02:36:17.847Z,100.00
2023-02-19T02:38:47.339Z,100.00
2023-02-19T02:41:16.300Z,100.00
2023-02-19T02:43:43.052Z,100.00
2023-02-19T02:46:17.066Z,100.00
2023-02-19T02:48:53.978Z,100.00
2023-02-19T02:51:38.179Z,100.00
2023-02-19T02:54:47.884Z,100.00
2023-02-19T02:57:18.711Z,100.00
2023-02-19T02:59:49.435Z,100.00
2023-02-19T03:02:24.775Z,100.00
2023-02-19T03:05:16.290Z,100.00
2023-02-19T03:07:43.036Z,100.00
2023-02-19T03:10:15.778Z,100.00
2023-02-19T03:13:03.426Z,100.00
2023-02-19T03:15:56.110Z,100.00
2023-02-19T03:18:42.349Z,100.00
2023-02-19T03:21:10.280Z,100.00
2023-02-19T03:23:58.232Z,100.00
2023-02-19T03:26:26.543Z,100.00
2023-02-19T03:29:13.802Z,100.00
2023-02-19T03:31:45.764Z,100.00
2023-02-19T03:34:18.541Z,100.00
2023-02-19T03:36:52.490Z,100.00
2023-02-19T03:39:22.189Z,100.00
2023-02-19T03:41:54.888Z,100.00
2023-02-19T03:44:47.490Z,100.00
2023-02-19T03:47:37.909Z,100.00
2023-02-19T03:50:44.682Z,100.00
2023-02-19T03:53:47.827Z,100.00
2023-02-19T03:56:57.045Z,100.00
2023-02-19T03:59:44.728Z,100.00
2023-02-19T04:02:19.515Z,100.00
2023-02-19T04:04:54.422Z,100.00
2023-02-19T04:07:23.947Z,100.00
2023-02-19T04:09:53.057Z,100.00
2023-02-19T04:12:21.474Z,100.00
2023-02-19T04:15:02.266Z,100.00
2023-02-19T04:17:45.605Z,100.00
2023-02-19T04:20:14.230Z,100.00
2023-02-19T04:22:41.896Z,100.00
2023-02-19T04:25:09.080Z,100.00
2023-02-19T04:27:38.346Z,100.00
2023-02-19T04:30:07.448Z,100.00
2023-02-19T04:32:34.239Z,100.00
2023-02-19T04:35:00.930Z,100.00
2023-02-19T04:37:27.668Z,100.00
2023-02-19T04:39:54.403Z,100.00
2023-02-19T04:42:21.153Z,100.00
2023-02-19T04:44:47.915Z,100.00
2023-02-19T04:47:17.746Z,100.00
2023-02-19T04:49:45.385Z,100.00
2023-02-19T04:52:12.388Z,100.00
2023-02-19T04:54:39.157Z,100.00
2023-02-19T04:57:06.027Z,100.00
2023-02-19T04:59:32.853Z,100.00
2023-02-19T05:01:59.544Z,100.00
2023-02-19T05:04:26.364Z,100.00
2023-02-19T05:06:53.151Z,100.00
2023-02-19T05:09:19.987Z,100.00
2023-02-19T05:11:46.756Z,100.00
2023-02-19T05:14:13.687Z,100.00
2023-02-19T05:16:40.392Z,100.00
2023-02-19T05:19:07.089Z,100.00
2023-02-19T05:21:33.909Z,100.00
2023-02-19T05:24:00.624Z,100.00
2023-02-19T05:26:27.384Z,100.00
2023-02-19T05:28:54.460Z,100.00
2023-02-19T05:31:21.945Z,100.00
2023-02-19T05:33:51.257Z,100.00
2023-02-19T05:36:20.474Z,100.00
2023-02-19T05:38:47.717Z,100.00
2023-02-19T05:41:16.191Z,100.00
2023-02-19T05:43:44.876Z,100.00
2023-02-19T05:46:14.025Z,100.00
2023-02-19T05:48:40.955Z,100.00
2023-02-19T05:51:10.694Z,100.00
2023-02-19T05:53:38.323Z,100.00
2023-02-19T05:56:16.350Z,100.00
2023-02-19T05:58:43.094Z,100.00
2023-02-19T06:01:19.291Z,100.00
2023-02-19T06:03:46.160Z,100.00
2023-02-19T06:06:18.324Z,100.00
2023-02-19T06:08:46.086Z,100.00
2023-02-19T06:11:13.043Z,100.00
2023-02-19T06:13:40.471Z,100.00
2023-02-19T06:16:09.124Z,100.00
2023-02-19T06:18:36.025Z,100.00
2023-02-19T06:21:07.522Z,100.00
2023-02-19T06:23:34.957Z,100.00
2023-02-19T06:26:22.660Z,100.00
2023-02-19T06:28:51.297Z,100.00
2023-02-19T06:31:20.307Z,100.00
2023-02-19T06:33:47.210Z,100.00
2023-02-19T06:36:16.608Z,100.00
2023-02-19T06:38:44.183Z,100.00
2023-02-19T06:41:12.244Z,100.00
2023-02-19T06:43:39.470Z,100.00
2023-02-19T06:46:08.570Z,100.00
2023-02-19T06:48:35.855Z,100.00
2023-02-19T06:51:03.053Z,100.00
2023-02-19T06:53:29.986Z,100.00
2023-02-19T06:56:05.176Z,100.00
2023-02-19T06:58:32.837Z,100.00
2023-02-19T07:01:00.580Z,100.00
2023-02-19T07:03:29.149Z,100.00
2023-02-19T07:06:00.199Z,100.00
2023-02-19T07:08:29.326Z,100.00
2023-02-19T07:10:58.645Z,100.00
2023-02-19T07:13:26.977Z,100.00
2023-02-19T07:16:09.554Z,100.00
2023-02-19T07:18:36.988Z,100.00
2023-02-19T07:21:11.412Z,100.00
2023-02-19T07:23:38.382Z,100.00
2023-02-19T07:26:08.314Z,100.00
2023-02-19T07:28:35.034Z,100.00
2023-02-19T07:31:06.690Z,100.00
2023-02-19T07:33:33.570Z,100.00
2023-02-19T07:36:06.595Z,100.00
2023-02-19T07:38:34.035Z,100.00
2023-02-19T07:41:03.149Z,100.00
2023-02-19T07:43:32.614Z,100.00
2023-02-19T07:46:02.428Z,100.00
2023-02-19T07:48:29.156Z,100.00
2023-02-19T07:50:57.586Z,100.00
2023-02-19T07:53:27.403Z,100.00
2023-02-19T07:55:59.262Z,100.00
2023-02-19T07:58:27.047Z,100.00
2023-02-19T08:00:54.510Z,100.00
2023-02-19T08:03:22.348Z,100.00
2023-02-19T08:05:51.967Z,100.00
2023-02-19T08:08:20.624Z,100.00
2023-02-19T08:11:07.889Z,100.00
2023-02-19T08:13:35.689Z,100.00
2023-02-19T08:16:15.970Z,100.00
2023-02-19T08:18:49.534Z,100.00
2023-02-19T08:21:21.177Z,100.00
2023-02-19T08:23:50.864Z,100.00
2023-02-19T08:26:18.881Z,100.00
2023-02-19T08:28:52.963Z,100.00
2023-02-19T08:31:21.998Z,100.00
2023-02-19T08:33:50.600Z,100.00
2023-02-19T08:36:19.662Z,100.00
2023-02-19T08:38:48.049Z,100.00
2023-02-19T08:41:18.518Z,100.00
2023-02-19T08:43:49.983Z,100.00
2023-02-19T08:46:18.794Z,100.00
2023-02-19T08:48:46.011Z,100.00
2023-02-19T08:51:14.085Z,100.00
2023-02-19T08:53:42.141Z,100.00
2023-02-19T08:56:13.151Z,100.00
2023-02-19T08:58:42.071Z,100.00
2023-02-19T09:01:14.924Z,100.00
2023-02-19T09:03:44.132Z,100.00
2023-02-19T09:06:19.344Z,100.00
2023-02-19T09:08:46.548Z,100.00
2023-02-19T09:11:13.725Z,100.00
2023-02-19T09:13:41.110Z,100.00
2023-02-19T09:16:08.200Z,100.00
2023-02-19T09:18:35.805Z,100.00
2023-02-19T09:21:05.207Z,100.00
2023-02-19T09:23:38.021Z,100.00
2023-02-19T09:26:15.521Z,100.00
2023-02-19T09:28:47.964Z,100.00
2023-02-19T09:31:16.823Z,100.00
2023-02-19T09:33:45.490Z,100.00
2023-02-19T09:36:13.526Z,100.00
2023-02-19T09:38:40.679Z,100.00
2023-02-19T09:41:14.526Z,100.00
2023-02-19T09:43:43.044Z,100.00
2023-02-19T09:46:22.462Z,100.00
2023-02-19T09:48:49.302Z,100.00
2023-02-19T09:51:17.885Z,100.00
2023-02-19T09:53:49.003Z,100.00
2023-02-19T09:56:17.131Z,100.00
2023-02-19T09:58:50.903Z,100.00
2023-02-19T10:01:18.623Z,100.00
2023-02-19T10:03:48.494Z,100.00
2023-02-19T10:06:29.279Z,100.00
2023-02-19T10:09:25.644Z,100.00
2023-02-19T10:11:55.669Z,100.00
2023-02-19T10:14:30.002Z,100.00
2023-02-19T10:17:01.138Z,100.00
2023-02-19T10:19:27.952Z,100.00
2023-02-19T10:21:56.711Z,100.00
2023-02-19T10:24:27.330Z,100.00
2023-02-19T10:26:54.736Z,100.00
2023-02-19T10:29:22.438Z,100.00
2023-02-19T10:31:49.339Z,100.00
2023-02-19T10:34:22.282Z,100.00
2023-02-19T10:36:51.077Z,77.45
2023-02-19T10:39:23.696Z,78.09
2023-02-19T10:41:51.691Z,77.63
2023-02-19T10:44:24.239Z,80.75
2023-02-19T10:46:55.271Z,72.37
2023-02-19T10:49:32.870Z,69.94
2023-02-19T10:52:22.083Z,67.24
2023-02-19T10:55:16.231Z,67.71
2023-02-19T10:57:42.990Z,67.11
2023-02-19T11:00:15.422Z,62.90
2023-02-19T11:02:44.034Z,64.14
2023-02-19T11:05:20.067Z,70.41
2023-02-19T11:07:57.738Z,65.13
2023-02-19T11:10:24.285Z,58.27
2023-02-19T11:12:53.392Z,55.94
2023-02-19T11:15:24.134Z,56.85
2023-02-19T11:18:00.102Z,55.28
2023-02-19T11:20:28.498Z,54.27
2023-02-19T11:23:03.383Z,56.65
2023-02-19T11:25:31.150Z,57.35
2023-02-19T11:28:07.172Z,54.66
2023-02-19T11:30:36.820Z,53.92
2023-02-19T11:33:24.481Z,52.27
2023-02-19T11:35:55.464Z,51.51
2023-02-19T11:38:22.166Z,51.71
2023-02-19T11:40:57.813Z,54.57
2023-02-19T11:43:35.367Z,53.17
2023-02-19T11:46:07.145Z,53.15
2023-02-19T11:48:47.009Z,53.90
2023-02-19T11:51:35.002Z,53.12
2023-02-19T11:54:07.386Z,56.66
2023-02-19T11:56:37.407Z,52.58
2023-02-19T11:59:29.635Z,49.58
2023-02-19T12:02:05.283Z,48.54
2023-02-19T12:04:31.966Z,47.99
2023-02-19T12:07:23.390Z,46.08
2023-02-19T12:10:18.777Z,49.61
2023-02-19T12:13:17.045Z,49.37
2023-02-19T12:16:08.584Z,51.57
2023-02-19T12:18:48.130Z,49.27
2023-02-19T12:22:00.606Z,48.30
2023-02-19T12:24:48.440Z,48.38
2023-02-19T12:27:35.221Z,49.46
2023-02-19T12:30:54.263Z,46.18
2023-02-19T12:33:27.013Z,45.00
2023-02-19T12:36:35.046Z,45.05
2023-02-19T12:39:28.320Z,45.16
2023-02-19T12:42:03.432Z,44.89
2023-02-19T12:44:45.910Z,43.87
2023-02-19T12:47:23.876Z,43.12
2023-02-19T12:50:07.487Z,44.09
2023-02-19T12:52:40.965Z,44.25
2023-02-19T12:55:26.434Z,42.75
2023-02-19T12:57:54.742Z,44.23
2023-02-19T13:00:44.562Z,43.37
2023-02-19T13:03:33.295Z,42.04
2023-02-19T13:06:15.833Z,42.94
2023-02-19T13:09:03.583Z,42.14
2023-02-19T13:11:38.600Z,41.37
2023-02-19T13:14:33.449Z,43.61
2023-02-19T13:17:26.188Z,42.29
2023-02-19T13:20:00.759Z,42.43
2023-02-19T13:22:56.509Z,42.34
2023-02-19T13:25:31.823Z,41.41
2023-02-19T13:28:08.852Z,41.99
2023-02-19T13:31:07.779Z,42.57
2023-02-19T13:33:59.355Z,42.08
2023-02-19T13:36:30.544Z,41.49
2023-02-19T13:38:59.458Z,42.09
2023-02-19T13:41:41.585Z,42.95
2023-02-19T13:44:18.708Z,46.14
2023-02-19T13:46:48.093Z,46.45
2023-02-19T13:49:27.732Z,46.67
2023-02-19T13:51:55.538Z,47.14
2023-02-19T13:54:33.587Z,40.73
2023-02-19T13:57:18.394Z,44.68
2023-02-19T13:59:46.435Z,46.55
2023-02-19T14:02:29.163Z,43.62
2023-02-19T14:05:05.614Z,47.25
2023-02-19T14:07:51.604Z,46.45
2023-02-19T14:10:53.965Z,47.17
2023-02-19T14:13:51.807Z,44.96
2023-02-19T14:16:40.124Z,44.98
2023-02-19T14:19:44.790Z,46.49
2023-02-19T14:22:46.026Z,45.55
2023-02-19T14:25:31.846Z,45.60
2023-02-19T14:28:11.458Z,44.65
2023-02-19T14:31:01.037Z,44.51
2023-02-19T14:33:34.373Z,45.96
2023-02-19T14:36:14.386Z,46.35
2023-02-19T14:39:02.650Z,46.53
2023-02-19T14:41:33.215Z,46.01
2023-02-19T14:44:07.805Z,47.34
2023-02-19T14:46:40.189Z,46.50
2023-02-19T14:49:27.504Z,46.40
2023-02-19T14:51:59.550Z,46.14
2023-02-19T14:54:37.424Z,46.05
2023-02-19T14:57:07.961Z,46.06
2023-02-19T14:59:34.739Z,49.62
2023-02-19T15:02:13.392Z,49.24
2023-02-19T15:04:40.327Z,49.94
2023-02-19T15:07:08.493Z,50.04
2023-02-19T15:09:43.323Z,51.15
2023-02-19T15:12:17.371Z,51.26
2023-02-19T15:14:45.513Z,51.89
2023-02-19T15:17:19.740Z,48.47
2023-02-19T15:19:46.653Z,48.79
2023-02-19T15:22:25.190Z,48.20
2023-02-19T15:24:52.485Z,49.46
2023-02-19T15:27:21.253Z,51.55
2023-02-19T15:29:53.311Z,51.17
2023-02-19T15:32:26.923Z,49.95
2023-02-19T15:34:56.930Z,49.51
2023-02-19T15:37:26.884Z,45.97
2023-02-19T15:39:56.333Z,46.98
2023-02-19T15:42:33.906Z,46.04
2023-02-19T15:45:28.375Z,46.31
2023-02-19T15:48:06.809Z,45.18
2023-02-19T15:50:36.954Z,47.55
2023-02-19T15:53:15.050Z,47.90
2023-02-19T15:55:49.424Z,50.25
2023-02-19T15:58:35.817Z,49.22
2023-02-19T16:01:15.408Z,47.65
2023-02-19T16:03:43.219Z,46.49
2023-02-19T16:06:14.943Z,45.10
2023-02-19T16:08:46.162Z,46.57
2023-02-19T16:12:00.425Z,46.61
2023-02-19T16:14:27.079Z,46.29
2023-02-19T16:17:01.218Z,46.84
2023-02-19T16:19:32.884Z,45.94
2023-02-19T16:22:01.815Z,48.29
2023-02-19T16:24:37.138Z,48.40
2023-02-19T16:27:06.367Z,48.71
2023-02-19T16:29:34.526Z,49.16
2023-02-19T16:32:05.606Z,50.50
2023-02-19T16:34:47.128Z,49.53
2023-02-19T16:37:35.107Z,49.52
2023-02-19T16:40:41.678Z,50.84
2023-02-19T16:43:14.000Z,49.71
2023-02-19T16:45:45.336Z,52.94
2023-02-19T16:48:12.741Z,57.56
2023-02-19T16:50:44.036Z,58.38
2023-02-19T16:53:22.730Z,53.34
2023-02-19T16:55:49.449Z,56.70
2023-02-19T16:58:16.158Z,60.75
2023-02-19T17:00:42.878Z,61.12
2023-02-19T17:03:14.254Z,58.12
2023-02-19T17:05:41.804Z,66.20
2023-02-19T17:08:37.730Z,65.46
2023-02-19T17:11:07.050Z,66.77
2023-02-19T17:13:33.765Z,69.47
2023-02-19T17:16:00.918Z,68.86
2023-02-19T17:18:27.573Z,69.00
2023-02-19T17:21:19.258Z,69.67
2023-02-19T17:23:45.965Z,67.50
2023-02-19T17:26:37.496Z,64.63
2023-02-19T17:29:06.446Z,65.64
2023-02-19T17:31:34.054Z,64.80
2023-02-19T17:34:00.985Z,64.61
2023-02-19T17:36:32.902Z,63.27
2023-02-19T17:39:01.773Z,64.34
2023-02-19T17:41:29.287Z,63.83
2023-02-19T17:43:56.046Z,65.62
2023-02-19T17:46:25.207Z,67.27
2023-02-19T17:48:52.427Z,67.44
2023-02-19T17:51:19.834Z,65.78
2023-02-19T17:53:46.662Z,62.10
2023-02-19T17:56:22.571Z,61.20
2023-02-19T17:58:49.652Z,62.19
2023-02-19T18:01:16.311Z,64.06
2023-02-19T18:03:45.984Z,63.14
2023-02-19T18:06:12.881Z,66.26
2023-02-19T18:08:40.124Z,65.75
2023-02-19T18:11:07.840Z,68.47
2023-02-19T18:13:34.543Z,69.41
2023-02-19T18:16:01.616Z,69.79
2023-02-19T18:18:30.256Z,69.65
2023-02-19T18:20:56.980Z,68.43
2023-02-19T18:23:23.707Z,67.31
2023-02-19T18:25:50.420Z,66.56
2023-02-19T18:28:17.355Z,64.74
2023-02-19T18:30:44.178Z,64.99
2023-02-19T18:33:13.218Z,64.70
2023-02-19T18:35:40.228Z,63.63
2023-02-19T18:38:07.406Z,64.34
2023-02-19T18:40:34.373Z,65.02
2023-02-19T18:43:01.160Z,65.81
2023-02-19T18:45:29.648Z,64.91
2023-02-19T18:47:56.477Z,68.48
2023-02-19T18:50:23.276Z,68.30
2023-02-19T18:52:50.024Z,67.09
2023-02-19T18:55:16.754Z,64.45
2023-02-19T18:57:44.143Z,65.33
2023-02-19T19:00:18.407Z,68.94
2023-02-19T19:02:49.791Z,74.31
2023-02-19T19:05:22.713Z,73.70
2023-02-19T19:07:57.649Z,76.69
2023-02-19T19:10:24.933Z,81.22
2023-02-19T19:12:51.631Z,82.80
2023-02-19T19:15:19.031Z,85.16
2023-02-19T19:20:16.457Z,84.55
2023-02-19T19:22:43.202Z,86.39
2023-02-19T19:25:10.180Z,91.28
2023-02-19T19:27:36.991Z,88.30
2023-02-19T19:30:05.476Z,98.40
2023-02-19T19:32:32.182Z,100.00
2023-02-19T19:34:58.987Z,91.73
2023-02-19T19:37:28.413Z,95.95
2023-02-19T19:39:56.243Z,94.91
2023-02-19T19:42:23.223Z,94.10
2023-02-19T19:44:50.210Z,94.58
2023-02-19T19:47:17.158Z,93.63
2023-02-19T19:49:47.155Z,94.65
2023-02-19T19:52:14.695Z,96.18
2023-02-19T19:54:43.428Z,100.00
2023-02-19T19:57:11.220Z,100.00
2023-02-19T19:59:39.450Z,100.00
2023-02-19T20:02:07.486Z,100.00
2023-02-19T20:04:34.295Z,100.00
2023-02-19T20:07:01.064Z,100.00
2023-02-19T20:09:29.179Z,100.00
2023-02-19T20:11:56.222Z,100.00
2023-02-19T20:14:25.053Z,99.75
2023-02-19T20:16:53.234Z,100.00
2023-02-19T20:19:21.415Z,100.00
2023-02-19T20:21:50.676Z,100.00
2023-02-19T20:24:19.438Z,100.00
2023-02-19T20:26:46.410Z,100.00
2023-02-19T20:29:13.162Z,100.00
2023-02-19T20:31:40.469Z,100.00
2023-02-19T20:34:07.681Z,100.00
2023-02-19T20:36:41.758Z,100.00
2023-02-19T20:39:08.537Z,100.00
2023-02-19T20:41:35.293Z,100.00
2023-02-19T20:44:02.278Z,100.00
2023-02-19T20:46:29.907Z,100.00
2023-02-19T20:48:56.962Z,100.00
2023-02-19T20:51:23.984Z,99.39
2023-02-19T20:53:50.686Z,97.67
2023-02-19T20:56:17.486Z,100.00
2023-02-19T20:58:44.219Z,100.00
2023-02-19T21:01:12.087Z,100.00
2023-02-19T21:03:38.998Z,99.19
2023-02-19T21:06:06.010Z,99.01
2023-02-19T21:08:32.757Z,100.00
2023-02-19T21:10:59.669Z,98.93
2023-02-19T21:13:26.431Z,97.34
2023-02-19T21:15:53.579Z,95.83
2023-02-19T21:18:20.342Z,98.21
2023-02-19T21:20:47.099Z,100.00
2023-02-19T21:23:14.207Z,100.00
2023-02-19T21:25:40.920Z,100.00
2023-02-19T21:28:09.656Z,100.00
2023-02-19T21:30:36.690Z,100.00
2023-02-19T21:33:03.882Z,100.00
2023-02-19T21:35:30.859Z,100.00
2023-02-19T21:37:57.541Z,100.00
2023-02-19T21:40:25.736Z,100.00
2023-02-19T21:42:52.582Z,100.00
2023-02-19T21:45:19.265Z,100.00
2023-02-19T21:47:46.069Z,100.00
2023-02-19T21:50:12.961Z,100.00
2023-02-19T21:52:39.679Z,100.00
2023-02-19T21:55:06.691Z,100.00
2023-02-19T21:57:33.534Z,100.00
2023-02-19T22:00:00.272Z,100.00
2023-02-19T22:02:26.994Z,100.00
2023-02-19T22:04:53.900Z,100.00
2023-02-19T22:07:21.629Z,100.00
2023-02-19T22:09:49.617Z,100.00
2023-02-19T22:12:17.454Z,100.00
2023-02-19T22:14:44.310Z,100.00
2023-02-19T22:17:11.378Z,100.00
2023-02-19T22:19:38.214Z,100.00
2023-02-19T22:22:05.314Z,100.00
2023-02-19T22:24:32.087Z,100.00
2023-02-19T22:26:58.908Z,100.00
2023-02-19T22:29:25.874Z,100.00
2023-02-19T22:31:53.040Z,100.00
2023-02-19T22:34:19.783Z,100.00
2023-02-19T22:36:46.684Z,100.00
2023-02-19T22:39:22.538Z,100.00
2023-02-19T22:41:49.647Z,100.00
2023-02-19T22:44:16.721Z,100.00
2023-02-19T22:46:49.326Z,100.00
2023-02-19T22:49:16.600Z,100.00
2023-02-19T22:51:55.208Z,100.00
2023-02-19T22:54:26.974Z,100.00
2023-02-19T22:56:54.784Z,100.00
2023-02-19T22:59:21.932Z,100.00
2023-02-19T23:01:49.020Z,100.00
2023-02-19T23:04:16.549Z,100.00
2023-02-19T23:06:45.466Z,100.00
2023-02-19T23:09:27.251Z,100.00
2023-02-19T23:12:05.394Z,100.00
2023-02-19T23:14:32.186Z,100.00
2023-02-19T23:16:58.948Z,100.00
2023-02-19T23:19:26.071Z,100.00
2023-02-19T23:21:53.132Z,100.00
2023-02-19T23:24:19.908Z,100.00
2023-02-19T23:26:49.822Z,100.00
2023-02-19T23:29:18.483Z,100.00
2023-02-19T23:31:45.737Z,100.00
2023-02-19T23:34:12.534Z,100.00
2023-02-19T23:36:43.772Z,100.00
2023-02-19T23:39:12.904Z,100.00
2023-02-19T23:41:45.232Z,100.00
2023-02-19T23:44:12.028Z,100.00
2023-02-19T23:46:38.710Z,100.00
2023-02-19T23:49:05.661Z,100.00
2023-02-19T23:51:32.351Z,100.00
2023-02-19T23:53:59.104Z,100.00
2023-02-19T23:56:27.871Z,100.00
2023-02-19T23:58:54.817Z,100.00
